Time;durP1;ratioP1;P1;durP2;ratioP2;P2;SDS_P1;SDS_P2;PMS_P1;PMS_P2;Temp;Humidity;BMP_temperature;BMP_pressure;BME280_temperature;BME280_humidity;BME280_pressure;Samples;Min_cycle;Max_cycle;Signal;HPM_P1;HPM_P2
2021/06/13 00:02:14;;;;;;;21.67;7.50;;;11.30;90.40;;;;;;5092358;28;20031;-67
2021/06/13 00:04:40;;;;;;;20.23;7.03;;;11.30;90.50;;;;;;5095767;28;20043;-67
2021/06/13 00:07:05;;;;;;;14.70;6.18;;;11.20;90.50;;;;;;5095236;28;20024;-67
2021/06/13 00:09:31;;;;;;;20.20;6.50;;;11.20;90.60;;;;;;5095324;28;20040;-67
2021/06/13 00:11:56;;;;;;;16.33;6.78;;;11.10;90.60;;;;;;5095190;28;20043;-67
2021/06/13 00:14:22;;;;;;;15.55;6.65;;;11.10;90.70;;;;;;5095214;28;20068;-67
2021/06/13 00:16:48;;;;;;;15.40;6.40;;;11.10;90.80;;;;;;5095225;28;20012;-67
2021/06/13 00:19:14;;;;;;;15.48;6.65;;;11.00;90.90;;;;;;5095299;28;20046;-67
2021/06/13 00:21:40;;;;;;;17.13;6.65;;;11.00;90.90;;;;;;5094877;28;20028;-67
2021/06/13 00:24:07;;;;;;;17.45;7.00;;;11.00;91.00;;;;;;5095129;28;20055;-67
2021/06/13 00:26:33;;;;;;;13.95;6.78;;;11.00;91.20;;;;;;5094934;28;20035;-67
2021/06/13 00:28:59;;;;;;;14.90;6.22;;;10.90;91.10;;;;;;5094865;28;20115;-67
2021/06/13 00:31:24;;;;;;;16.75;6.35;;;10.90;91.20;;;;;;5094800;28;20071;-67
2021/06/13 00:33:50;;;;;;;11.93;5.60;;;10.90;91.20;;;;;;5094986;28;20020;-67
2021/06/13 00:36:17;;;;;;;13.27;6.45;;;10.90;91.20;;;;;;5094481;28;20402;-67
2021/06/13 00:38:42;;;;;;;15.38;6.22;;;10.90;91.40;;;;;;5094716;28;20120;-67
2021/06/13 00:41:09;;;;;;;21.13;6.95;;;10.80;91.40;;;;;;5094775;28;20028;-67
2021/06/13 00:43:35;;;;;;;16.27;6.72;;;10.70;91.60;;;;;;5094550;28;20389;-67
2021/06/13 00:46:01;;;;;;;13.07;5.95;;;10.70;91.70;;;;;;5094628;28;20032;-67
2021/06/13 00:48:26;;;;;;;17.52;6.43;;;10.70;91.80;;;;;;5094410;28;20024;-67
2021/06/13 00:50:53;;;;;;;16.77;6.53;;;10.70;91.70;;;;;;5094541;28;20085;-67
2021/06/13 00:53:20;;;;;;;16.15;7.25;;;10.60;91.80;;;;;;5094141;28;20395;-67
2021/06/13 00:55:47;;;;;;;20.10;7.05;;;10.60;91.80;;;;;;5094639;28;20024;-67
2021/06/13 00:58:13;;;;;;;16.00;6.63;;;10.60;91.90;;;;;;5094435;28;20378;-67
2021/06/13 01:00:39;;;;;;;15.73;6.68;;;10.50;91.90;;;;;;5094002;28;20028;-67
2021/06/13 01:03:06;;;;;;;16.30;6.70;;;10.50;92.00;;;;;;5094099;28;20017;-67
2021/06/13 01:05:32;;;;;;;20.58;7.72;;;10.50;92.10;;;;;;5094101;28;20508;-67
2021/06/13 01:08:23;;;;;;;17.35;7.32;;;10.40;92.10;;;;;;5094102;28;20115;-67
2021/06/13 01:11:25;;;;;;;21.23;7.25;;;10.40;92.20;;;;;;5074077;28;20035;-67
2021/06/13 01:14:16;;;;;;;12.50;6.13;;;10.40;92.20;;;;;;5084560;28;20063;-67
2021/06/13 01:17:00;;;;;;;15.43;6.57;;;10.30;92.10;;;;;;5094281;28;20466;-67
2021/06/13 01:19:36;;;;;;;19.92;7.38;;;10.30;92.20;;;;;;5094005;28;20115;-67
2021/06/13 01:22:27;;;;;;;16.58;7.38;;;10.20;92.30;;;;;;5093991;28;20028;-67
2021/06/13 01:25:12;;;;;;;19.30;7.38;;;10.30;92.40;;;;;;5093941;28;20386;-67
2021/06/13 01:27:53;;;;;;;19.92;7.72;;;10.20;92.40;;;;;;5094046;28;20389;-67
2021/06/13 01:30:19;;;;;;;21.75;8.88;;;10.20;92.40;;;;;;5093662;28;20020;-67
2021/06/13 01:32:44;;;;;;;19.10;8.07;;;10.20;92.50;;;;;;5093498;28;20022;-67
2021/06/13 01:35:15;;;;;;;14.82;6.60;;;10.10;92.60;;;;;;5093540;28;20055;-67
2021/06/13 01:37:44;;;;;;;20.23;7.78;;;10.10;92.60;;;;;;5093661;28;20043;-67
2021/06/13 01:40:12;;;;;;;14.82;7.63;;;10.10;92.70;;;;;;5093619;28;20024;-67
2021/06/13 01:42:41;;;;;;;19.10;8.18;;;10.10;92.70;;;;;;5093482;28;20081;-67
2021/06/13 01:45:14;;;;;;;18.02;8.07;;;10.10;92.90;;;;;;5093419;28;20017;-67
2021/06/13 01:47:40;;;;;;;;;;;10.10;92.90;;;;;;5093703;28;20124;-67
2021/06/13 01:50:09;;;;;;;14.52;7.70;;;10.00;92.70;;;;;;5093365;28;20380;-67
2021/06/13 01:52:37;;;;;;;19.83;7.78;;;10.10;92.80;;;;;;5092891;28;20028;-67
2021/06/13 01:55:04;;;;;;;15.93;8.02;;;10.00;92.80;;;;;;5093067;28;20123;-67
2021/06/13 01:57:31;;;;;;;16.63;7.13;;;10.00;92.90;;;;;;5091724;28;20024;-67
2021/06/13 01:59:58;;;;;;;22.85;8.23;;;10.00;93.00;;;;;;5093037;28;20020;-67
2021/06/13 02:02:26;;;;;;;20.52;9.05;;;9.90;93.00;;;;;;5093190;28;20454;-67
2021/06/13 02:04:52;;;;;;;18.48;8.73;;;9.90;93.10;;;;;;5093373;28;20031;-67
2021/06/13 02:07:19;;;;;;;21.20;9.00;;;9.90;93.10;;;;;;5093290;28;20036;-67
2021/06/13 02:09:46;;;;;;;23.27;10.00;;;9.90;93.20;;;;;;5092860;28;20024;-67
2021/06/13 02:12:12;;;;;;;22.60;9.25;;;9.90;93.20;;;;;;5093002;28;20026;-67
2021/06/13 02:14:40;;;;;;;21.67;8.55;;;9.90;93.30;;;;;;5074694;28;20019;-67
2021/06/13 02:17:07;;;;;;;22.20;9.13;;;9.90;93.40;;;;;;5074830;28;20016;-67
2021/06/13 02:19:33;;;;;;;19.83;9.15;;;9.90;93.40;;;;;;5093045;28;20478;-66
2021/06/13 02:22:00;;;;;;;18.50;8.38;;;9.80;93.40;;;;;;5075153;28;20024;-67
2021/06/13 02:24:33;;;;;;;22.67;9.65;;;9.80;93.40;;;;;;5092982;28;20089;-67
2021/06/13 02:27:01;;;;;;;18.75;8.82;;;9.80;93.50;;;;;;5092894;28;20486;-67
2021/06/13 02:29:28;;;;;;;16.08;8.60;;;9.70;93.50;;;;;;5092722;28;20047;-67
2021/06/13 02:31:55;;;;;;;19.10;8.63;;;9.70;93.60;;;;;;5092909;28;20046;-67
2021/06/13 02:34:26;;;;;;;21.15;9.25;;;9.70;93.60;;;;;;5092824;28;20462;-67
2021/06/13 02:36:55;;;;;;;17.85;9.13;;;9.70;93.70;;;;;;5092886;28;20055;-67
2021/06/13 02:39:21;;;;;;;19.25;9.10;;;9.70;93.70;;;;;;5093252;28;20028;-67
2021/06/13 02:41:48;;;;;;;21.30;9.50;;;9.70;93.70;;;;;;5092647;28;20115;-67
2021/06/13 02:44:14;;;;;;;26.23;10.10;;;9.70;93.70;;;;;;5092857;28;20440;-67
2021/06/13 02:46:40;;;;;;;25.55;9.85;;;9.60;93.80;;;;;;5092776;28;20034;-67
2021/06/13 02:49:06;;;;;;;22.38;9.77;;;9.60;93.80;;;;;;5092542;28;20074;-67
2021/06/13 02:51:35;;;;;;;17.48;8.68;;;9.60;93.90;;;;;;5074483;28;20024;-67
2021/06/13 02:54:03;;;;;;;20.45;9.38;;;9.50;93.90;;;;;;5092513;28;20036;-67
2021/06/13 02:56:41;;;;;;;23.58;11.25;;;9.50;93.90;;;;;;5087544;28;20013;-67
2021/06/13 02:59:41;;;;;;;19.02;9.60;;;9.50;94.00;;;;;;5072403;28;20028;-67
2021/06/13 03:02:11;;;;;;;20.92;9.40;;;9.50;94.00;;;;;;5072395;28;20020;-67
2021/06/13 03:04:40;;;;;;;21.58;9.02;;;9.50;94.00;;;;;;5090433;28;20123;-67
2021/06/13 03:07:06;;;;;;;20.15;9.05;;;9.50;94.00;;;;;;5096346;28;20032;-67
2021/06/13 03:09:34;;;;;;;25.30;10.43;;;9.50;94.10;;;;;;5096372;28;20039;-67
2021/06/13 03:12:00;;;;;;;26.02;10.25;;;9.40;94.10;;;;;;5096253;28;20131;-67
2021/06/13 03:14:30;;;;;;;22.33;10.43;;;9.40;94.10;;;;;;5096289;28;20178;-67
2021/06/13 03:16:56;;;;;;;20.98;10.02;;;9.40;94.20;;;;;;5096446;28;20043;-67
2021/06/13 03:19:24;;;;;;;19.80;9.55;;;9.40;94.20;;;;;;5096109;28;20382;-67
2021/06/13 03:21:50;;;;;;;19.63;9.48;;;9.30;94.20;;;;;;5096305;28;20553;-67
2021/06/13 03:24:18;;;;;;;17.70;9.63;;;9.30;94.30;;;;;;5096331;28;20107;-67
2021/06/13 03:26:44;;;;;;;22.25;10.00;;;9.30;94.30;;;;;;5094929;28;20432;-67
2021/06/13 03:29:10;;;;;;;28.50;11.88;;;9.40;94.40;;;;;;5096152;28;20398;-67
2021/06/13 03:31:36;;;;;;;24.45;10.32;;;9.30;94.30;;;;;;5096014;28;20028;-67
2021/06/13 03:34:02;;;;;;;25.45;11.05;;;9.30;94.30;;;;;;5095733;28;20024;-67
2021/06/13 03:36:31;;;;;;;31.15;11.30;;;9.30;94.40;;;;;;5096007;28;20378;-67
2021/06/13 03:38:59;;;;;;;24.27;11.18;;;9.30;94.40;;;;;;5095761;28;20032;-67
2021/06/13 03:41:25;;;;;;;20.60;10.07;;;9.30;94.50;;;;;;5077641;28;20020;-67
2021/06/13 03:43:53;;;;;;;27.65;10.80;;;9.30;94.50;;;;;;5095938;28;20031;-67
2021/06/13 03:46:20;;;;;;;22.92;10.80;;;9.30;94.50;;;;;;5095445;28;20019;-66
2021/06/13 03:48:50;;;;;;;27.73;11.80;;;9.30;94.50;;;;;;5095350;28;20024;-67
2021/06/13 03:51:17;;;;;;;20.60;11.52;;;9.30;94.50;;;;;;5095479;28;20031;-66
2021/06/13 03:53:55;;;;;;;25.27;11.52;;;9.30;94.50;;;;;;5095221;28;20040;-67
2021/06/13 03:56:27;;;;;;;22.20;10.68;;;9.40;94.60;;;;;;5095237;28;20030;-67
2021/06/13 03:58:54;;;;;;;19.38;9.90;;;9.40;94.60;;;;;;5095395;28;20040;-67
2021/06/13 04:01:21;;;;;;;24.10;12.30;;;9.40;94.50;;;;;;5095142;28;20111;-67
2021/06/13 04:03:50;;;;;;;29.20;12.18;;;9.40;94.90;;;;;;5095374;28;20327;-67
2021/06/13 04:06:18;;;;;;;31.60;13.20;;;9.40;94.60;;;;;;5095443;28;20094;-66
2021/06/13 04:08:46;;;;;;;28.33;13.25;;;9.50;94.70;;;;;;5095083;28;20528;-67
2021/06/13 04:11:12;;;;;;;27.73;13.15;;;9.50;94.70;;;;;;5095230;28;20432;-66
2021/06/13 04:13:38;;;;;;;23.95;12.35;;;9.60;94.70;;;;;;5094858;28;20020;-66
2021/06/13 04:16:08;;;;;;;26.65;13.15;;;9.60;94.70;;;;;;5094205;28;20028;-66
2021/06/13 04:18:35;;;;;;;23.15;12.05;;;9.70;94.70;;;;;;5094829;28;20107;-67
2021/06/13 04:21:04;;;;;;;19.50;11.48;;;9.70;94.70;;;;;;5076773;28;20532;-66
2021/06/13 04:23:30;;;;;;;25.30;12.43;;;9.80;94.70;;;;;;5076537;28;20031;-66
2021/06/13 04:25:57;;;;;;;22.60;11.63;;;9.80;94.70;;;;;;5094888;28;20028;-67
2021/06/13 04:28:23;;;;;;;27.85;13.30;;;9.80;94.60;;;;;;5094513;28;20055;-67
2021/06/13 04:31:13;;;;;;;33.17;14.98;;;9.90;94.70;;;;;;5076503;28;20020;-66
2021/06/13 04:33:41;;;;;;;23.85;12.30;;;9.90;94.60;;;;;;5094585;28;20069;-67
2021/06/13 04:36:08;;;;;;;23.27;12.18;;;10.00;94.70;;;;;;5094613;28;20035;-67
2021/06/13 04:38:34;;;;;;;24.80;12.43;;;10.00;94.70;;;;;;5094430;28;20035;-67
2021/06/13 04:41:00;;;;;;;26.38;13.15;;;10.10;94.80;;;;;;5094383;28;20021;-67
2021/06/13 04:43:26;;;;;;;29.45;14.02;;;10.20;94.70;;;;;;5094416;28;20492;-67
2021/06/13 04:45:51;;;;;;;24.73;13.65;;;10.30;94.80;;;;;;5094502;28;20023;-67
2021/06/13 04:48:19;;;;;;;25.52;12.35;;;10.30;94.70;;;;;;5094389;28;20054;-67
2021/06/13 04:50:45;;;;;;;25.67;13.00;;;10.50;94.80;;;;;;5076256;28;20470;-67
2021/06/13 04:53:30;;;;;;;23.08;12.07;;;10.60;95.00;;;;;;5093694;28;20026;-67
2021/06/13 04:55:58;;;;;;;20.60;11.27;;;11.00;95.40;;;;;;5094240;28;20484;-67
2021/06/13 04:58:27;;;;;;;23.30;11.15;;;11.50;95.50;;;;;;5093906;28;20055;-67
2021/06/13 05:00:53;;;;;;;20.33;10.23;;;12.00;95.50;;;;;;5076022;28;20050;-67
2021/06/13 05:03:19;;;;;;;16.08;10.15;;;12.50;95.30;;;;;;5094225;28;20020;-67
2021/06/13 05:05:45;;;;;;;16.73;9.05;;;13.00;95.00;;;;;;5094156;28;20502;-67
2021/06/13 05:08:10;;;;;;;12.77;8.23;;;13.40;94.50;;;;;;5093819;28;20055;-67
2021/06/13 05:10:36;;;;;;;19.30;9.65;;;13.80;94.00;;;;;;5094101;28;20471;-67
2021/06/13 05:13:13;;;;;;;16.27;8.38;;;14.20;93.50;;;;;;5093986;28;20028;-67
2021/06/13 05:15:39;;;;;;;16.35;8.57;;;14.60;93.10;;;;;;5094160;28;20055;-66
2021/06/13 05:18:04;;;;;;;19.10;8.43;;;15.00;92.90;;;;;;5094033;28;20086;-67
2021/06/13 05:20:30;;;;;;;15.27;8.02;;;15.30;92.30;;;;;;5093729;28;20542;-67
2021/06/13 05:22:58;;;;;;;15.75;8.68;;;15.50;91.90;;;;;;5093743;28;20131;-66
2021/06/13 05:25:27;;;;;;;15.90;7.95;;;15.90;91.50;;;;;;5093750;28;20051;-67
2021/06/13 05:27:54;;;;;;;18.40;7.90;;;16.10;91.00;;;;;;5093039;28;20028;-67
2021/06/13 05:30:20;;;;;;;17.38;8.07;;;16.20;90.50;;;;;;5093690;28;20116;-67
2021/06/13 05:32:45;;;;;;;19.58;8.05;;;16.50;90.20;;;;;;5075610;28;20118;-67
2021/06/13 05:35:12;;;;;;;21.38;7.65;;;16.70;88.90;;;;;;5094353;28;20101;-67
2021/06/13 05:37:37;;;;;;;11.32;6.03;;;16.90;88.00;;;;;;5093293;28;20040;-67
2021/06/13 05:40:06;;;;;;;13.20;6.25;;;17.20;87.10;;;;;;5093460;28;20516;-67
2021/06/13 05:42:32;;;;;;;13.70;5.88;;;17.30;85.40;;;;;;5093543;28;20024;-67
2021/06/13 05:44:57;;;;;;;15.65;6.85;;;17.40;84.80;;;;;;5093372;28;20099;-67
2021/06/13 05:47:23;;;;;;;13.27;6.35;;;17.50;84.00;;;;;;5093499;28;20032;-67
2021/06/13 05:49:48;;;;;;;16.80;7.53;;;17.70;83.10;;;;;;5093331;28;20095;-67
2021/06/13 05:52:14;;;;;;;14.32;6.35;;;17.70;81.60;;;;;;5091840;28;20189;-67
2021/06/13 05:54:39;;;;;;;23.17;7.20;;;17.70;80.60;;;;;;5093252;28;20043;-67
2021/06/13 05:57:05;;;;;;;15.05;5.97;;;17.60;79.80;;;;;;5093328;28;20062;-67
2021/06/13 05:59:31;;;;;;;16.20;7.80;;;17.50;79.10;;;;;;5093219;28;20028;-67
2021/06/13 06:01:56;;;;;;;14.82;6.55;;;17.40;78.60;;;;;;5075349;28;20082;-67
2021/06/13 06:04:22;;;;;;;15.55;6.75;;;17.30;78.40;;;;;;5093135;28;20442;-67
2021/06/13 06:06:47;;;;;;;14.98;6.85;;;17.30;78.00;;;;;;5093034;28;20028;-67
2021/06/13 06:09:13;;;;;;;16.98;7.35;;;17.20;77.90;;;;;;5093208;28;20111;-67
2021/06/13 06:11:42;;;;;;;19.10;6.93;;;17.10;78.20;;;;;;5093126;28;20050;-67
2021/06/13 06:14:09;;;;;;;15.50;6.97;;;17.20;78.10;;;;;;5093119;28;20031;-67
2021/06/13 06:16:35;;;;;;;17.90;6.22;;;17.10;78.10;;;;;;5093134;28;20107;-67
2021/06/13 06:19:01;;;;;;;19.67;7.70;;;17.10;78.30;;;;;;5092986;28;20030;-67
2021/06/13 06:21:26;;;;;;;18.10;6.30;;;17.20;78.00;;;;;;5092855;28;20020;-67
2021/06/13 06:23:53;;;;;;;17.00;6.18;;;17.20;77.60;;;;;;5093050;28;20059;-67
2021/06/13 06:26:19;;;;;;;17.67;6.85;;;17.20;77.40;;;;;;5093010;28;20024;-67
2021/06/13 06:28:45;;;;;;;19.17;7.20;;;17.20;77.60;;;;;;5093103;28;20028;-67
2021/06/13 06:31:11;;;;;;;19.20;6.68;;;17.20;77.10;;;;;;5092846;28;20378;-67
2021/06/13 06:33:37;;;;;;;21.58;7.03;;;17.10;77.30;;;;;;5092781;28;20020;-67
2021/06/13 06:36:03;;;;;;;18.55;6.40;;;17.10;77.30;;;;;;5092800;28;20119;-67
2021/06/13 06:38:30;;;;;;;13.32;5.78;;;17.10;77.10;;;;;;5092731;28;20023;-67
2021/06/13 06:40:58;;;;;;;17.75;6.00;;;17.20;77.10;;;;;;5096529;28;20027;-67
2021/06/13 06:43:23;;;;;;;14.43;5.45;;;17.20;76.90;;;;;;5097205;28;20103;-67
2021/06/13 06:45:49;;;;;;;20.13;6.68;;;17.30;77.10;;;;;;5096985;28;20483;-67
2021/06/13 06:48:14;;;;;;;19.70;5.93;;;17.30;76.70;;;;;;5095637;28;20024;-67
2021/06/13 06:50:40;;;;;;;14.32;5.50;;;17.20;76.70;;;;;;5096403;28;20055;-67
2021/06/13 06:53:06;;;;;;;16.73;5.47;;;17.20;76.80;;;;;;5096663;28;20470;-67
2021/06/13 06:55:31;;;;;;;12.52;4.32;;;17.40;77.20;;;;;;5097007;28;20027;-67
2021/06/13 06:57:58;;;;;;;11.52;3.83;;;17.40;75.30;;;;;;5096596;28;20035;-67
2021/06/13 07:00:23;;;;;;;10.85;4.40;;;17.50;74.60;;;;;;5096651;28;20030;-67
2021/06/13 07:02:49;;;;;;;15.65;4.68;;;17.50;74.00;;;;;;5096665;28;20099;-67
2021/06/13 07:05:14;;;;;;;11.50;4.00;;;17.60;74.10;;;;;;5096172;28;20024;-67
2021/06/13 07:07:42;;;;;;;15.80;3.97;;;17.80;73.50;;;;;;5078214;28;20122;-67
2021/06/13 07:10:09;;;;;;;13.00;4.63;;;17.90;73.00;;;;;;5096529;28;20028;-67
2021/06/13 07:12:34;;;;;;;10.07;3.42;;;17.90;72.30;;;;;;5096350;28;20051;-67
2021/06/13 07:15:00;;;;;;;10.95;3.67;;;18.00;72.00;;;;;;5096559;28;20028;-67
2021/06/13 07:17:26;;;;;;;11.75;3.33;;;18.10;71.90;;;;;;5096350;28;20035;-67
2021/06/13 07:19:52;;;;;;;8.90;2.72;;;18.20;71.70;;;;;;5096233;28;20056;-67
2021/06/13 07:22:18;;;;;;;12.90;3.10;;;18.20;71.30;;;;;;5096136;28;20051;-67
2021/06/13 07:24:44;;;;;;;9.75;3.78;;;18.10;70.40;;;;;;5096027;28;20020;-67
2021/06/13 07:27:10;;;;;;;9.15;3.45;;;18.00;70.50;;;;;;5094269;28;20023;-67
2021/06/13 07:29:35;;;;;;;8.93;3.88;;;18.00;70.70;;;;;;5095699;28;20032;-67
2021/06/13 07:32:01;;;;;;;11.30;2.97;;;18.20;70.40;;;;;;5095952;28;20032;-67
2021/06/13 07:34:26;;;;;;;11.00;2.88;;;18.20;70.00;;;;;;5096218;28;20035;-67
2021/06/13 07:36:52;;;;;;;12.93;3.45;;;18.20;69.40;;;;;;5095788;28;20281;-67
2021/06/13 07:39:18;;;;;;;9.93;3.60;;;18.20;69.30;;;;;;5096006;28;20077;-67
2021/06/13 07:41:43;;;;;;;11.52;4.00;;;18.20;70.00;;;;;;5095876;28;20016;-67
2021/06/13 07:44:09;;;;;;;11.77;3.72;;;18.40;69.90;;;;;;5095971;28;20012;-67
2021/06/13 07:46:35;;;;;;;6.47;2.58;;;18.70;69.40;;;;;;5095645;28;20034;-67
2021/06/13 07:49:01;;;;;;;8.30;2.90;;;19.00;68.30;;;;;;5095587;28;20102;-67
2021/06/13 07:51:27;;;;;;;9.88;3.15;;;19.20;67.50;;;;;;5094287;28;20036;-67
2021/06/13 07:53:52;;;;;;;10.18;3.80;;;19.50;66.20;;;;;;5077252;28;20042;-67
2021/06/13 07:56:18;;;;;;;9.82;3.17;;;19.60;65.80;;;;;;5095404;28;20024;-67
2021/06/13 07:58:43;;;;;;;7.90;3.67;;;19.70;65.20;;;;;;5095385;28;20367;-67
2021/06/13 08:01:09;;;;;;;16.17;3.60;;;19.80;64.30;;;;;;5095256;28;20099;-67
2021/06/13 08:03:39;;;;;;;9.55;3.13;;;19.80;64.10;;;;;;5095443;28;20077;-67
2021/06/13 08:06:07;;;;;;;12.20;3.65;;;19.90;62.60;;;;;;5077054;28;20051;-67
2021/06/13 08:08:33;;;;;;;12.63;3.40;;;19.90;62.20;;;;;;5095159;28;20020;-67
2021/06/13 08:11:00;;;;;;;9.52;3.50;;;20.00;62.60;;;;;;5095547;28;20484;-67
2021/06/13 08:13:25;;;;;;;8.45;3.70;;;20.00;61.90;;;;;;5094954;28;20184;-67
2021/06/13 08:15:52;;;;;;;8.43;2.60;;;19.80;62.10;;;;;;5095119;28;20078;-67
2021/06/13 08:18:18;;;;;;;8.65;2.85;;;19.70;62.40;;;;;;5094705;28;20016;-67
2021/06/13 08:20:43;;;;;;;7.10;2.60;;;19.50;62.60;;;;;;5095071;28;20182;-67
2021/06/13 08:23:10;;;;;;;6.78;2.58;;;19.40;62.70;;;;;;5094918;28;20031;-67
2021/06/13 08:25:35;;;;;;;7.30;2.95;;;19.40;62.90;;;;;;5095073;28;20362;-67
2021/06/13 08:28:01;;;;;;;9.23;2.60;;;19.40;62.10;;;;;;5095043;28;20020;-67
2021/06/13 08:30:26;;;;;;;9.48;2.70;;;19.30;62.10;;;;;;5095019;28;20034;-67
2021/06/13 08:32:52;;;;;;;8.77;2.67;;;19.20;62.50;;;;;;5094760;28;20040;-67
2021/06/13 08:35:18;;;;;;;9.00;2.97;;;19.20;60.70;;;;;;5094409;28;20028;-67
2021/06/13 08:37:44;;;;;;;6.85;3.00;;;19.30;60.90;;;;;;5094531;28;20029;-67
2021/06/13 08:40:12;;;;;;;12.60;2.60;;;19.40;61.00;;;;;;5094526;28;20028;-67
2021/06/13 08:42:39;;;;;;;14.65;3.00;;;19.50;60.00;;;;;;5094812;28;20020;-67
2021/06/13 08:45:07;;;;;;;6.70;1.83;;;19.50;58.60;;;;;;5094545;28;20020;-67
2021/06/13 08:47:34;;;;;;;10.30;2.83;;;19.50;59.00;;;;;;5094236;28;20025;-67
2021/06/13 08:49:59;;;;;;;8.23;2.10;;;19.50;58.20;;;;;;5091421;28;20025;-67
2021/06/13 08:52:25;;;;;;;12.93;2.63;;;19.60;59.00;;;;;;5094464;28;20101;-67
2021/06/13 08:54:51;;;;;;;14.55;3.38;;;19.80;59.10;;;;;;5088659;28;20452;-67
2021/06/13 08:57:16;;;;;;;6.95;2.42;;;19.80;58.40;;;;;;5094381;28;20021;-67
2021/06/13 08:59:43;;;;;;;10.70;2.67;;;19.80;58.20;;;;;;5094021;28;20040;-67
2021/06/13 09:02:09;;;;;;;10.70;2.92;;;19.70;58.60;;;;;;5094237;28;20028;-67
2021/06/13 09:04:35;;;;;;;9.98;2.90;;;19.70;58.10;;;;;;5093979;28;20503;-67
2021/06/13 09:07:23;;;;;;;9.93;2.67;;;19.80;58.00;;;;;;5094249;28;20078;-67
2021/06/13 09:09:50;;;;;;;8.88;3.03;;;19.80;58.00;;;;;;5094193;28;20374;-67
2021/06/13 09:12:16;;;;;;;8.88;2.88;;;19.70;57.50;;;;;;5093949;28;20024;-67
2021/06/13 09:14:44;;;;;;;8.15;2.60;;;19.70;58.70;;;;;;5093770;28;20016;-67
2021/06/13 09:17:19;;;;;;;8.82;2.83;;;19.90;57.90;;;;;;5093813;28;20028;-67
2021/06/13 09:20:19;;;;;;;8.73;2.63;;;20.00;57.80;;;;;;5093924;28;20034;-67
2021/06/13 09:23:03;;;;;;;10.35;3.28;;;20.10;57.90;;;;;;5073509;28;20020;-67
2021/06/13 09:25:28;;;;;;;9.13;2.55;;;20.20;58.30;;;;;;5073976;28;20020;-67
2021/06/13 09:28:09;;;;;;;10.45;3.00;;;20.30;58.30;;;;;;5088713;28;20027;-67
2021/06/13 09:30:37;;;;;;;8.45;3.25;;;20.40;58.60;;;;;;5075612;28;20390;-67
2021/06/13 09:33:13;;;;;;;9.45;2.75;;;20.40;57.30;;;;;;5093926;28;20020;-67
2021/06/13 09:35:43;;;;;;;7.70;2.50;;;20.30;58.20;;;;;;5093578;28;20020;-67
2021/06/13 09:38:15;;;;;;;6.45;2.38;;;20.30;57.80;;;;;;5091987;28;20028;-67
2021/06/13 09:40:44;;;;;;;11.13;3.22;;;20.20;57.50;;;;;;5093472;28;20020;-67
2021/06/13 09:43:18;;;;;;;7.38;2.70;;;20.30;56.80;;;;;;5093373;28;20020;-67
2021/06/13 09:45:50;;;;;;;11.10;3.60;;;20.20;56.90;;;;;;5093632;28;20043;-67
2021/06/13 09:48:16;;;;;;;7.75;2.75;;;20.10;56.40;;;;;;5092886;28;20024;-68
2021/06/13 09:50:44;;;;;;;8.35;2.63;;;20.10;56.20;;;;;;5075271;28;20115;-67
2021/06/13 09:53:28;;;;;;;10.35;2.38;;;20.10;57.10;;;;;;5093184;28;20382;-67
2021/06/13 09:56:11;;;;;;;7.93;2.63;;;20.10;56.10;;;;;;5073335;28;20024;-67
2021/06/13 09:58:45;;;;;;;;;;;20.20;55.60;;;;;;5055382;28;20031;-67
2021/06/13 10:01:11;;;;;;;6.32;1.80;;;20.30;55.90;;;;;;5091164;28;20336;-67
2021/06/13 10:03:38;;;;;;;7.07;1.80;;;20.50;55.40;;;;;;5091947;28;20060;-67
2021/06/13 10:06:06;;;;;;;5.03;1.80;;;20.70;54.50;;;;;;5093278;28;20023;-67
2021/06/13 10:08:32;;;;;;;5.60;2.40;;;20.70;54.10;;;;;;5093213;28;20064;-67
2021/06/13 10:10:58;;;;;;;20.27;2.67;;;20.80;54.20;;;;;;5092932;28;20103;-67
2021/06/13 10:13:53;;;;;;;6.63;2.33;;;20.80;53.50;;;;;;5092715;28;20028;-67
2021/06/13 10:16:39;;;;;;;6.45;1.55;;;20.80;52.10;;;;;;5072993;28;20074;-67
2021/06/13 10:19:06;;;;;;;6.47;2.10;;;20.70;51.90;;;;;;5072658;28;20024;-67
2021/06/13 10:21:35;;;;;;;5.43;2.03;;;20.80;51.50;;;;;;5085623;28;20107;-67
2021/06/13 10:24:04;;;;;;;5.75;1.85;;;20.90;50.90;;;;;;5092881;28;20418;-67
2021/06/13 10:26:30;;;;;;;7.10;2.38;;;21.00;50.80;;;;;;5092703;28;20497;-67
2021/06/13 10:28:56;;;;;;;7.88;2.70;;;21.10;51.10;;;;;;5092881;28;20119;-67
2021/06/13 10:31:21;;;;;;;7.40;1.65;;;21.20;50.30;;;;;;5092716;28;20032;-67
2021/06/13 10:33:47;;;;;;;7.60;2.30;;;21.10;51.00;;;;;;5092815;28;20024;-67
2021/06/13 10:36:15;;;;;;;9.45;2.30;;;21.00;50.90;;;;;;5092708;28;20048;-67
2021/06/13 10:38:42;;;;;;;7.60;2.53;;;20.90;51.10;;;;;;5092742;28;20030;-67
2021/06/13 10:41:08;;;;;;;10.18;3.13;;;21.00;51.70;;;;;;5092753;28;20559;-67
2021/06/13 10:43:34;;;;;;;6.15;2.17;;;21.00;51.40;;;;;;5092940;28;20064;-67
2021/06/13 10:46:15;;;;;;;10.77;3.20;;;21.10;51.80;;;;;;5083269;28;20039;-67
2021/06/13 10:48:50;;;;;;;9.77;2.75;;;21.10;51.40;;;;;;5072501;28;20056;-67
2021/06/13 10:51:42;;;;;;;8.45;3.15;;;21.10;52.60;;;;;;5084992;28;20017;-67
2021/06/13 10:54:28;;;;;;;9.15;3.10;;;21.10;52.20;;;;;;5092793;28;20105;-67
2021/06/13 10:57:03;;;;;;;10.40;4.00;;;21.00;52.70;;;;;;5092405;28;20045;-67
2021/06/13 10:59:32;;;;;;;12.05;3.47;;;21.10;52.20;;;;;;5092324;28;20032;-67
2021/06/13 11:02:04;;;;;;;8.98;3.03;;;21.10;52.60;;;;;;5092464;28;20028;-67
2021/06/13 11:04:48;;;;;;;8.52;2.42;;;21.10;52.80;;;;;;5092521;28;20103;-67
2021/06/13 11:07:35;;;;;;;9.68;3.00;;;21.30;53.00;;;;;;5092555;28;20016;-67
2021/06/13 11:10:10;;;;;;;7.90;2.95;;;21.50;54.40;;;;;;5092375;28;20129;-67
2021/06/13 11:12:47;;;;;;;10.70;3.05;;;21.70;53.90;;;;;;5092276;28;20382;-67
2021/06/13 11:15:35;;;;;;;9.43;2.60;;;21.80;52.70;;;;;;5092533;28;20382;-67
2021/06/13 11:18:16;;;;;;;8.43;3.03;;;21.80;52.50;;;;;;5092085;28;20054;-67
2021/06/13 11:21:20;;;;;;;9.45;3.33;;;22.00;52.30;;;;;;5092312;28;20028;-67
2021/06/13 11:23:47;;;;;;;10.85;2.38;;;22.10;52.50;;;;;;5092182;28;20651;-67
2021/06/13 11:26:30;;;;;;;8.70;2.65;;;22.10;52.30;;;;;;5093061;28;20091;-67
2021/06/13 11:28:55;;;;;;;8.63;3.10;;;22.10;51.10;;;;;;5095887;28;20024;-67
2021/06/13 11:31:22;;;;;;;6.55;2.42;;;22.00;51.10;;;;;;5077800;28;20664;-67
2021/06/13 11:33:48;;;;;;;8.98;3.10;;;22.00;50.40;;;;;;5096066;28;20090;-67
2021/06/13 11:36:26;;;;;;;8.95;2.88;;;22.00;50.10;;;;;;5095618;28;20016;-67
2021/06/13 11:39:03;;;;;;;8.52;3.00;;;22.00;50.30;;;;;;5095927;28;20035;-67
2021/06/13 11:41:30;;;;;;;10.68;4.10;;;21.90;51.00;;;;;;5095699;28;20467;-67
2021/06/13 11:43:57;;;;;;;9.23;3.42;;;22.00;50.90;;;;;;5094133;28;20074;-67
2021/06/13 11:46:32;;;;;;;8.02;3.08;;;22.10;50.80;;;;;;5095607;28;20186;-67
2021/06/13 11:48:58;;;;;;;9.45;3.22;;;22.30;51.10;;;;;;5077364;28;20095;-67
2021/06/13 11:51:24;;;;;;;9.75;3.90;;;22.60;50.70;;;;;;5095472;28;20028;-67
2021/06/13 11:54:04;;;;;;;10.43;3.33;;;22.70;50.40;;;;;;5094845;28;20076;-67
2021/06/13 11:56:33;;;;;;;9.93;3.78;;;23.00;49.70;;;;;;5095765;28;20089;-67
2021/06/13 11:58:59;;;;;;;8.38;3.85;;;23.10;50.30;;;;;;5095332;28;20104;-67
2021/06/13 12:01:25;;;;;;;7.30;2.72;;;23.10;49.90;;;;;;5095557;28;20045;-67
2021/06/13 12:03:51;;;;;;;10.45;3.25;;;23.10;49.60;;;;;;5094144;28;20056;-67
2021/06/13 12:06:20;;;;;;;8.18;3.67;;;23.10;49.30;;;;;;5095077;28;20051;-67
2021/06/13 12:08:48;;;;;;;11.07;3.50;;;23.00;49.30;;;;;;5095514;28;20385;-67
2021/06/13 12:11:50;;;;;;;7.40;2.47;;;23.10;49.50;;;;;;5095165;28;20031;-67
2021/06/13 12:14:39;;;;;;;8.75;3.30;;;23.10;49.90;;;;;;5013107;28;20069;-67
2021/06/13 12:17:11;;;;;;;8.60;3.13;;;23.20;50.30;;;;;;5091691;28;20024;-67
2021/06/13 12:19:48;;;;;;;8.55;2.63;;;23.30;49.90;;;;;;5095264;28;20032;-67
2021/06/13 12:22:29;;;;;;;7.00;2.03;;;23.40;50.20;;;;;;5094921;28;20024;-67
2021/06/13 12:27:28;;;;;;;6.87;2.50;;;23.40;48.70;;;;;;5094850;28;20115;-67
2021/06/13 12:29:56;;;;;;;5.38;2.50;;;23.40;48.20;;;;;;5095290;28;20077;-67
2021/06/13 12:32:23;;;;;;;6.03;1.90;;;23.60;48.50;;;;;;5095014;28;20032;-67
2021/06/13 12:34:55;;;;;;;8.43;2.97;;;23.70;47.40;;;;;;5094832;28;20024;-67
2021/06/13 12:37:24;;;;;;;5.22;1.73;;;23.50;46.10;;;;;;5094426;28;20032;-67
2021/06/13 12:40:00;;;;;;;5.38;2.20;;;23.30;45.60;;;;;;5094415;28;20023;-67
2021/06/13 12:42:27;;;;;;;7.88;1.90;;;23.20;45.60;;;;;;5094748;28;20048;-67
2021/06/13 12:45:11;;;;;;;6.03;1.80;;;23.20;45.60;;;;;;5094571;28;20021;-67
2021/06/13 12:47:42;;;;;;;6.13;1.60;;;23.20;45.00;;;;;;5094680;28;20016;-67
2021/06/13 12:50:09;;;;;;;6.00;1.92;;;23.20;45.00;;;;;;5094220;28;20064;-67
2021/06/13 12:52:37;;;;;;;4.95;1.60;;;23.20;44.60;;;;;;5094445;28;20043;-67
2021/06/13 12:55:07;;;;;;;4.20;1.35;;;23.10;44.40;;;;;;5094314;28;20401;-68